Aviation Digital Data Service (ADDS)

Output produced by METARs form (1525 UTC 07 July 2015)
found at http://aviationweather.gov/adds/metars/
 
KLCH 071120Z 0712/0812 14004KT P6SM FEW025 BKN200 
     FM071500 18012G20KT P6SM SCT035 
     FM080100 18007KT P6SM FEW040 BKN200